sensor_id;sensor_type;location;lat;lon;timestamp;P1;durP1;ratioP1;P2;durP2;ratioP2
3095;SDS011;1558;42.700;23.360;2022-07-09T00:02:08;3.47;;;2.07;;
3095;SDS011;1558;42.700;23.360;2022-07-09T00:04:36;2.43;;;1.27;;
3095;SDS011;1558;42.700;23.360;2022-07-09T00:07:04;1.80;;;1.23;;
3095;SDS011;1558;42.700;23.360;2022-07-09T00:09:32;1.53;;;1.43;;
3095;SDS011;1558;42.700;23.360;2022-07-09T00:12:01;1.57;;;1.40;;
3095;SDS011;1558;42.700;23.360;2022-07-09T00:14:29;2.70;;;1.60;;
3095;SDS011;1558;42.700;23.360;2022-07-09T00:16:57;1.93;;;1.40;;
3095;SDS011;1558;42.700;23.360;2022-07-09T00:19:25;1.90;;;1.63;;
3095;SDS011;1558;42.700;23.360;2022-07-09T00:21:53;1.33;;;1.23;;
3095;SDS011;1558;42.700;23.360;2022-07-09T00:24:21;1.67;;;1.53;;
3095;SDS011;1558;42.700;23.360;2022-07-09T00:26:49;2.30;;;1.60;;
3095;SDS011;1558;42.700;23.360;2022-07-09T00:29:19;1.20;;;1.10;;
3095;SDS011;1558;42.700;23.360;2022-07-09T00:31:47;1.00;;;0.90;;
3095;SDS011;1558;42.700;23.360;2022-07-09T00:34:15;1.47;;;1.37;;
3095;SDS011;1558;42.700;23.360;2022-07-09T00:36:42;1.47;;;1.30;;
3095;SDS011;1558;42.700;23.360;2022-07-09T00:39:10;1.67;;;1.40;;
3095;SDS011;1558;42.700;23.360;2022-07-09T00:41:38;1.53;;;1.43;;
3095;SDS011;1558;42.700;23.360;2022-07-09T00:44:06;1.10;;;1.00;;
3095;SDS011;1558;42.700;23.360;2022-07-09T00:46:35;1.17;;;1.03;;
3095;SDS011;1558;42.700;23.360;2022-07-09T00:49:03;1.37;;;1.30;;
3095;SDS011;1558;42.700;23.360;2022-07-09T00:51:32;1.30;;;1.20;;
3095;SDS011;1558;42.700;23.360;2022-07-09T00:54:01;1.80;;;1.37;;
3095;SDS011;1558;42.700;23.360;2022-07-09T00:56:29;1.63;;;1.27;;
3095;SDS011;1558;42.700;23.360;2022-07-09T00:58:57;1.87;;;1.43;;
3095;SDS011;1558;42.700;23.360;2022-07-09T01:01:26;1.43;;;1.33;;
3095;SDS011;1558;42.700;23.360;2022-07-09T01:03:56;1.07;;;1.03;;
3095;SDS011;1558;42.700;23.360;2022-07-09T01:06:24;1.30;;;1.17;;
3095;SDS011;1558;42.700;23.360;2022-07-09T01:08:52;1.20;;;1.00;;
3095;SDS011;1558;42.700;23.360;2022-07-09T01:11:20;1.00;;;0.90;;
3095;SDS011;1558;42.700;23.360;2022-07-09T01:13:48;1.30;;;1.20;;
3095;SDS011;1558;42.700;23.360;2022-07-09T01:16:17;1.80;;;1.40;;
3095;SDS011;1558;42.700;23.360;2022-07-09T01:18:46;1.57;;;1.30;;
3095;SDS011;1558;42.700;23.360;2022-07-09T01:21:16;0.93;;;0.87;;
3095;SDS011;1558;42.700;23.360;2022-07-09T01:23:44;1.07;;;1.00;;
3095;SDS011;1558;42.700;23.360;2022-07-09T01:26:12;1.60;;;1.40;;
3095;SDS011;1558;42.700;23.360;2022-07-09T01:28:40;1.10;;;1.07;;
3095;SDS011;1558;42.700;23.360;2022-07-09T01:31:08;1.00;;;1.00;;
3095;SDS011;1558;42.700;23.360;2022-07-09T01:33:36;1.50;;;1.27;;
3095;SDS011;1558;42.700;23.360;2022-07-09T01:36:04;1.17;;;1.00;;
3095;SDS011;1558;42.700;23.360;2022-07-09T01:38:34;0.80;;;0.80;;
3095;SDS011;1558;42.700;23.360;2022-07-09T01:41:02;0.93;;;0.93;;
3095;SDS011;1558;42.700;23.360;2022-07-09T01:43:30;1.20;;;1.10;;
3095;SDS011;1558;42.700;23.360;2022-07-09T01:45:59;1.43;;;1.30;;
3095;SDS011;1558;42.700;23.360;2022-07-09T01:48:28;1.10;;;1.00;;
3095;SDS011;1558;42.700;23.360;2022-07-09T01:50:57;1.20;;;1.10;;
3095;SDS011;1558;42.700;23.360;2022-07-09T01:53:25;0.83;;;0.83;;
3095;SDS011;1558;42.700;23.360;2022-07-09T01:55:55;1.27;;;1.17;;
3095;SDS011;1558;42.700;23.360;2022-07-09T01:58:23;0.90;;;0.90;;
3095;SDS011;1558;42.700;23.360;2022-07-09T02:00:51;1.23;;;0.80;;
3095;SDS011;1558;42.700;23.360;2022-07-09T02:03:19;1.03;;;0.93;;
3095;SDS011;1558;42.700;23.360;2022-07-09T02:05:49;1.20;;;1.20;;
3095;SDS011;1558;42.700;23.360;2022-07-09T02:08:17;0.93;;;0.90;;
3095;SDS011;1558;42.700;23.360;2022-07-09T02:10:45;0.83;;;0.83;;
3095;SDS011;1558;42.700;23.360;2022-07-09T02:13:14;1.23;;;1.13;;
3095;SDS011;1558;42.700;23.360;2022-07-09T02:15:43;1.00;;;1.00;;
3095;SDS011;1558;42.700;23.360;2022-07-09T02:18:11;1.10;;;1.00;;
3095;SDS011;1558;42.700;23.360;2022-07-09T02:20:40;1.03;;;0.93;;
3095;SDS011;1558;42.700;23.360;2022-07-09T02:23:08;0.97;;;0.90;;
3095;SDS011;1558;42.700;23.360;2022-07-09T02:25:36;1.00;;;1.00;;
3095;SDS011;1558;42.700;23.360;2022-07-09T02:28:04;1.13;;;1.07;;
3095;SDS011;1558;42.700;23.360;2022-07-09T02:30:33;1.17;;;1.03;;
3095;SDS011;1558;42.700;23.360;2022-07-09T02:33:03;1.30;;;1.20;;
3095;SDS011;1558;42.700;23.360;2022-07-09T02:35:31;1.17;;;1.07;;
3095;SDS011;1558;42.700;23.360;2022-07-09T02:37:59;1.20;;;1.10;;
3095;SDS011;1558;42.700;23.360;2022-07-09T02:40:27;1.20;;;1.10;;
3095;SDS011;1558;42.700;23.360;2022-07-09T02:42:55;1.03;;;0.93;;
3095;SDS011;1558;42.700;23.360;2022-07-09T02:45:23;1.23;;;0.90;;
3095;SDS011;1558;42.700;23.360;2022-07-09T02:47:52;1.67;;;1.27;;
3095;SDS011;1558;42.700;23.360;2022-07-09T02:50:21;1.13;;;1.07;;
3095;SDS011;1558;42.700;23.360;2022-07-09T02:52:48;1.40;;;0.90;;
3095;SDS011;1558;42.700;23.360;2022-07-09T02:55:16;0.77;;;0.77;;
3095;SDS011;1558;42.700;23.360;2022-07-09T02:57:44;0.57;;;0.57;;
3095;SDS011;1558;42.700;23.360;2022-07-09T03:00:12;1.00;;;1.00;;
3095;SDS011;1558;42.700;23.360;2022-07-09T03:02:41;1.30;;;1.10;;
3095;SDS011;1558;42.700;23.360;2022-07-09T03:05:10;0.77;;;0.70;;
3095;SDS011;1558;42.700;23.360;2022-07-09T03:07:38;1.13;;;0.97;;
3095;SDS011;1558;42.700;23.360;2022-07-09T03:10:06;1.00;;;1.00;;
3095;SDS011;1558;42.700;23.360;2022-07-09T03:12:35;0.90;;;0.90;;
3095;SDS011;1558;42.700;23.360;2022-07-09T03:15:03;0.97;;;0.97;;
3095;SDS011;1558;42.700;23.360;2022-07-09T03:17:32;1.10;;;1.00;;
3095;SDS011;1558;42.700;23.360;2022-07-09T03:20:00;0.77;;;0.77;;
3095;SDS011;1558;42.700;23.360;2022-07-09T03:22:29;1.27;;;1.10;;
3095;SDS011;1558;42.700;23.360;2022-07-09T03:24:57;1.00;;;0.97;;
3095;SDS011;1558;42.700;23.360;2022-07-09T03:27:25;0.77;;;0.77;;
3095;SDS011;1558;42.700;23.360;2022-07-09T03:29:53;1.03;;;0.97;;
3095;SDS011;1558;42.700;23.360;2022-07-09T03:32:21;0.97;;;0.90;;
3095;SDS011;1558;42.700;23.360;2022-07-09T03:34:49;1.37;;;1.00;;
3095;SDS011;1558;42.700;23.360;2022-07-09T03:37:18;0.80;;;0.80;;
3095;SDS011;1558;42.700;23.360;2022-07-09T03:39:47;1.23;;;1.13;;
3095;SDS011;1558;42.700;23.360;2022-07-09T03:42:15;1.00;;;0.90;;
3095;SDS011;1558;42.700;23.360;2022-07-09T03:44:43;1.10;;;1.00;;
3095;SDS011;1558;42.700;23.360;2022-07-09T03:47:11;1.40;;;1.30;;
3095;SDS011;1558;42.700;23.360;2022-07-09T03:49:39;0.90;;;0.90;;
3095;SDS011;1558;42.700;23.360;2022-07-09T03:52:07;1.23;;;1.13;;
3095;SDS011;1558;42.700;23.360;2022-07-09T03:54:43;1.40;;;1.30;;
3095;SDS011;1558;42.700;23.360;2022-07-09T03:57:12;0.90;;;0.90;;
3095;SDS011;1558;42.700;23.360;2022-07-09T03:59:40;2.70;;;2.00;;
3095;SDS011;1558;42.700;23.360;2022-07-09T04:02:08;0.90;;;0.90;;
3095;SDS011;1558;42.700;23.360;2022-07-09T04:04:39;0.97;;;0.93;;
3095;SDS011;1558;42.700;23.360;2022-07-09T04:07:07;1.30;;;1.20;;
3095;SDS011;1558;42.700;23.360;2022-07-09T04:09:35;1.20;;;0.90;;
3095;SDS011;1558;42.700;23.360;2022-07-09T04:12:04;0.93;;;0.93;;
3095;SDS011;1558;42.700;23.360;2022-07-09T04:14:33;1.20;;;1.10;;
3095;SDS011;1558;42.700;23.360;2022-07-09T04:17:01;1.30;;;0.93;;
3095;SDS011;1558;42.700;23.360;2022-07-09T04:19:30;1.00;;;0.97;;
3095;SDS011;1558;42.700;23.360;2022-07-09T04:21:58;1.07;;;1.07;;
3095;SDS011;1558;42.700;23.360;2022-07-09T04:24:25;1.50;;;0.87;;
3095;SDS011;1558;42.700;23.360;2022-07-09T04:26:53;1.40;;;1.30;;
3095;SDS011;1558;42.700;23.360;2022-07-09T04:29:22;1.00;;;1.00;;
3095;SDS011;1558;42.700;23.360;2022-07-09T04:31:51;1.47;;;1.40;;
3095;SDS011;1558;42.700;23.360;2022-07-09T04:34:19;1.60;;;1.50;;
3095;SDS011;1558;42.700;23.360;2022-07-09T04:36:47;1.60;;;1.00;;
3095;SDS011;1558;42.700;23.360;2022-07-09T04:39:15;1.30;;;1.20;;
3095;SDS011;1558;42.700;23.360;2022-07-09T04:41:43;1.27;;;1.10;;
3095;SDS011;1558;42.700;23.360;2022-07-09T04:44:11;1.10;;;1.00;;
3095;SDS011;1558;42.700;23.360;2022-07-09T04:46:42;0.90;;;0.90;;
3095;SDS011;1558;42.700;23.360;2022-07-09T04:49:12;1.13;;;1.07;;
3095;SDS011;1558;42.700;23.360;2022-07-09T04:51:40;1.27;;;1.17;;
3095;SDS011;1558;42.700;23.360;2022-07-09T04:54:07;1.70;;;1.23;;
3095;SDS011;1558;42.700;23.360;2022-07-09T04:56:36;0.97;;;0.97;;
3095;SDS011;1558;42.700;23.360;2022-07-09T04:59:03;1.47;;;1.40;;
3095;SDS011;1558;42.700;23.360;2022-07-09T05:01:31;1.10;;;0.97;;
3095;SDS011;1558;42.700;23.360;2022-07-09T05:03:59;3.07;;;1.30;;
3095;SDS011;1558;42.700;23.360;2022-07-09T05:06:29;0.70;;;0.70;;
3095;SDS011;1558;42.700;23.360;2022-07-09T05:08:57;1.10;;;1.00;;
3095;SDS011;1558;42.700;23.360;2022-07-09T05:11:25;1.17;;;1.07;;
3095;SDS011;1558;42.700;23.360;2022-07-09T05:13:53;2.07;;;1.17;;
3095;SDS011;1558;42.700;23.360;2022-07-09T05:16:21;1.90;;;1.33;;
3095;SDS011;1558;42.700;23.360;2022-07-09T05:18:49;1.07;;;0.90;;
3095;SDS011;1558;42.700;23.360;2022-07-09T05:21:17;1.30;;;1.20;;
3095;SDS011;1558;42.700;23.360;2022-07-09T05:23:46;1.33;;;1.00;;
3095;SDS011;1558;42.700;23.360;2022-07-09T05:26:14;1.00;;;1.00;;
3095;SDS011;1558;42.700;23.360;2022-07-09T05:28:42;1.20;;;1.10;;
3095;SDS011;1558;42.700;23.360;2022-07-09T05:31:10;1.77;;;1.30;;
3095;SDS011;1558;42.700;23.360;2022-07-09T05:33:58;1.27;;;0.87;;
3095;SDS011;1558;42.700;23.360;2022-07-09T05:36:26;1.37;;;1.27;;
3095;SDS011;1558;42.700;23.360;2022-07-09T05:38:57;1.20;;;1.10;;
3095;SDS011;1558;42.700;23.360;2022-07-09T05:41:26;1.47;;;1.03;;
3095;SDS011;1558;42.700;23.360;2022-07-09T05:43:54;0.73;;;0.73;;
3095;SDS011;1558;42.700;23.360;2022-07-09T05:46:22;0.87;;;0.87;;
3095;SDS011;1558;42.700;23.360;2022-07-09T05:48:50;0.83;;;0.83;;
3095;SDS011;1558;42.700;23.360;2022-07-09T05:51:18;1.03;;;1.00;;
3095;SDS011;1558;42.700;23.360;2022-07-09T05:53:46;2.20;;;1.40;;
3095;SDS011;1558;42.700;23.360;2022-07-09T05:56:16;1.00;;;1.00;;
3095;SDS011;1558;42.700;23.360;2022-07-09T05:58:44;1.37;;;1.10;;
3095;SDS011;1558;42.700;23.360;2022-07-09T06:01:12;0.97;;;0.90;;
3095;SDS011;1558;42.700;23.360;2022-07-09T06:03:40;1.83;;;1.03;;
3095;SDS011;1558;42.700;23.360;2022-07-09T06:06:09;1.33;;;0.93;;
3095;SDS011;1558;42.700;23.360;2022-07-09T06:08:37;0.77;;;0.77;;
3095;SDS011;1558;42.700;23.360;2022-07-09T06:11:05;1.67;;;1.20;;
3095;SDS011;1558;42.700;23.360;2022-07-09T06:13:35;1.13;;;1.10;;
3095;SDS011;1558;42.700;23.360;2022-07-09T06:16:03;1.10;;;1.10;;
3095;SDS011;1558;42.700;23.360;2022-07-09T06:18:31;1.13;;;1.03;;
3095;SDS011;1558;42.700;23.360;2022-07-09T06:21:00;1.60;;;1.50;;
3095;SDS011;1558;42.700;23.360;2022-07-09T06:23:28;1.13;;;1.03;;
3095;SDS011;1558;42.700;23.360;2022-07-09T06:25:56;1.20;;;1.10;;
3095;SDS011;1558;42.700;23.360;2022-07-09T06:28:24;1.57;;;1.40;;
3095;SDS011;1558;42.700;23.360;2022-07-09T06:30:53;1.00;;;0.80;;
3095;SDS011;1558;42.700;23.360;2022-07-09T06:33:21;1.10;;;1.10;;
3095;SDS011;1558;42.700;23.360;2022-07-09T06:35:49;0.90;;;0.90;;
3095;SDS011;1558;42.700;23.360;2022-07-09T06:38:17;1.03;;;1.00;;
3095;SDS011;1558;42.700;23.360;2022-07-09T06:40:45;2.33;;;2.20;;
3095;SDS011;1558;42.700;23.360;2022-07-09T06:43:13;5.33;;;4.80;;
3095;SDS011;1558;42.700;23.360;2022-07-09T06:45:41;5.90;;;5.40;;
3095;SDS011;1558;42.700;23.360;2022-07-09T06:48:11;7.10;;;5.67;;
3095;SDS011;1558;42.700;23.360;2022-07-09T06:50:39;6.30;;;5.80;;
3095;SDS011;1558;42.700;23.360;2022-07-09T06:53:07;5.53;;;5.10;;
3095;SDS011;1558;42.700;23.360;2022-07-09T06:55:35;6.40;;;5.80;;
3095;SDS011;1558;42.700;23.360;2022-07-09T06:58:03;7.47;;;6.87;;
3095;SDS011;1558;42.700;23.360;2022-07-09T07:00:31;8.67;;;7.90;;
3095;SDS011;1558;42.700;23.360;2022-07-09T07:03:00;6.53;;;5.93;;
3095;SDS011;1558;42.700;23.360;2022-07-09T07:05:29;7.30;;;6.70;;
3095;SDS011;1558;42.700;23.360;2022-07-09T07:07:57;6.83;;;6.33;;
3095;SDS011;1558;42.700;23.360;2022-07-09T07:10:25;7.43;;;6.83;;
3095;SDS011;1558;42.700;23.360;2022-07-09T07:12:53;7.10;;;6.50;;
3095;SDS011;1558;42.700;23.360;2022-07-09T07:15:22;8.60;;;7.80;;
3095;SDS011;1558;42.700;23.360;2022-07-09T07:17:50;7.50;;;6.80;;
3095;SDS011;1558;42.700;23.360;2022-07-09T07:20:23;7.47;;;6.97;;
3095;SDS011;1558;42.700;23.360;2022-07-09T07:22:53;8.10;;;7.40;;
3095;SDS011;1558;42.700;23.360;2022-07-09T07:25:21;7.73;;;7.13;;
3095;SDS011;1558;42.700;23.360;2022-07-09T07:27:50;6.90;;;6.23;;
3095;SDS011;1558;42.700;23.360;2022-07-09T07:30:18;6.40;;;5.80;;
3095;SDS011;1558;42.700;23.360;2022-07-09T07:32:46;6.40;;;5.80;;
3095;SDS011;1558;42.700;23.360;2022-07-09T07:35:14;6.10;;;5.60;;
3095;SDS011;1558;42.700;23.360;2022-07-09T07:37:42;7.53;;;6.97;;
3095;SDS011;1558;42.700;23.360;2022-07-09T07:40:12;7.20;;;6.50;;
3095;SDS011;1558;42.700;23.360;2022-07-09T07:42:40;7.23;;;6.23;;
3095;SDS011;1558;42.700;23.360;2022-07-09T07:45:08;6.50;;;5.90;;
3095;SDS011;1558;42.700;23.360;2022-07-09T07:47:37;6.70;;;6.20;;
3095;SDS011;1558;42.700;23.360;2022-07-09T07:50:06;6.43;;;5.93;;
3095;SDS011;1558;42.700;23.360;2022-07-09T07:52:35;6.60;;;6.07;;
3095;SDS011;1558;42.700;23.360;2022-07-09T07:55:03;8.00;;;6.70;;
3095;SDS011;1558;42.700;23.360;2022-07-09T07:57:33;7.13;;;6.53;;
3095;SDS011;1558;42.700;23.360;2022-07-09T08:00:01;6.83;;;6.33;;
3095;SDS011;1558;42.700;23.360;2022-07-09T08:02:30;6.17;;;5.77;;
3095;SDS011;1558;42.700;23.360;2022-07-09T08:04:58;5.80;;;5.30;;
3095;SDS011;1558;42.700;23.360;2022-07-09T08:07:26;6.13;;;5.67;;
3095;SDS011;1558;42.700;23.360;2022-07-09T08:09:54;6.07;;;5.57;;
3095;SDS011;1558;42.700;23.360;2022-07-09T08:12:22;6.33;;;5.70;;
3095;SDS011;1558;42.700;23.360;2022-07-09T08:14:52;5.80;;;4.80;;
3095;SDS011;1558;42.700;23.360;2022-07-09T08:17:20;5.50;;;5.00;;
3095;SDS011;1558;42.700;23.360;2022-07-09T08:19:48;5.93;;;4.93;;
3095;SDS011;1558;42.700;23.360;2022-07-09T08:22:16;5.27;;;4.80;;
3095;SDS011;1558;42.700;23.360;2022-07-09T08:24:44;4.80;;;4.40;;
3095;SDS011;1558;42.700;23.360;2022-07-09T08:27:13;6.20;;;5.57;;
3095;SDS011;1558;42.700;23.360;2022-07-09T08:29:40;8.27;;;7.53;;
3095;SDS011;1558;42.700;23.360;2022-07-09T08:32:10;18.08;;;16.30;;
3095;SDS011;1558;42.700;23.360;2022-07-09T08:34:39;5.93;;;4.47;;
3095;SDS011;1558;42.700;23.360;2022-07-09T08:37:06;5.65;;;4.80;;
3095;SDS011;1558;42.700;23.360;2022-07-09T08:39:34;5.60;;;4.90;;
3095;SDS011;1558;42.700;23.360;2022-07-09T08:42:03;5.07;;;4.68;;
3095;SDS011;1558;42.700;23.360;2022-07-09T08:44:37;5.65;;;5.15;;
3095;SDS011;1558;42.700;23.360;2022-07-09T08:47:09;5.53;;;5.13;;
3095;SDS011;1558;42.700;23.360;2022-07-09T08:49:39;5.07;;;4.78;;
3095;SDS011;1558;42.700;23.360;2022-07-09T08:52:08;6.22;;;5.72;;
3095;SDS011;1558;42.700;23.360;2022-07-09T08:54:38;6.32;;;5.72;;
3095;SDS011;1558;42.700;23.360;2022-07-09T08:57:07;7.13;;;5.90;;
3095;SDS011;1558;42.700;23.360;2022-07-09T08:59:35;5.53;;;4.95;;
3095;SDS011;1558;42.700;23.360;2022-07-09T09:02:04;5.53;;;5.13;;
3095;SDS011;1558;42.700;23.360;2022-07-09T09:04:34;6.33;;;5.10;;
3095;SDS011;1558;42.700;23.360;2022-07-09T09:07:11;6.63;;;5.40;;
3095;SDS011;1558;42.700;23.360;2022-07-09T09:09:40;6.10;;;5.50;;
3095;SDS011;1558;42.700;23.360;2022-07-09T09:12:08;5.57;;;5.17;;
3095;SDS011;1558;42.700;23.360;2022-07-09T09:14:36;5.23;;;4.83;;
3095;SDS011;1558;42.700;23.360;2022-07-09T09:17:05;5.75;;;5.30;;
3095;SDS011;1558;42.700;23.360;2022-07-09T09:19:37;7.00;;;6.30;;
3095;SDS011;1558;42.700;23.360;2022-07-09T09:22:05;6.05;;;5.55;;
3095;SDS011;1558;42.700;23.360;2022-07-09T09:24:35;6.38;;;5.97;;
3095;SDS011;1558;42.700;23.360;2022-07-09T09:27:03;6.90;;;6.20;;
3095;SDS011;1558;42.700;23.360;2022-07-09T09:29:32;8.18;;;7.47;;
3095;SDS011;1558;42.700;23.360;2022-07-09T09:32:08;7.55;;;6.80;;
3095;SDS011;1558;42.700;23.360;2022-07-09T09:34:37;9.02;;;8.23;;
3095;SDS011;1558;42.700;23.360;2022-07-09T09:37:07;8.50;;;7.80;;
3095;SDS011;1558;42.700;23.360;2022-07-09T09:39:36;8.20;;;7.28;;
3095;SDS011;1558;42.700;23.360;2022-07-09T09:42:05;8.65;;;7.85;;
3095;SDS011;1558;42.700;23.360;2022-07-09T09:44:37;8.00;;;7.38;;
3095;SDS011;1558;42.700;23.360;2022-07-09T09:47:06;7.65;;;7.05;;
3095;SDS011;1558;42.700;23.360;2022-07-09T09:49:34;7.93;;;7.22;;
3095;SDS011;1558;42.700;23.360;2022-07-09T09:52:09;7.28;;;6.53;;
3095;SDS011;1558;42.700;23.360;2022-07-09T09:54:38;7.30;;;6.70;;
3095;SDS011;1558;42.700;23.360;2022-07-09T09:57:09;7.00;;;6.50;;
3095;SDS011;1558;42.700;23.360;2022-07-09T09:59:40;7.07;;;6.47;;
3095;SDS011;1558;42.700;23.360;2022-07-09T10:02:11;6.32;;;5.82;;
3095;SDS011;1558;42.700;23.360;2022-07-09T10:04:42;7.00;;;6.40;;
3095;SDS011;1558;42.700;23.360;2022-07-09T10:07:11;7.22;;;6.63;;
3095;SDS011;1558;42.700;23.360;2022-07-09T10:09:41;8.93;;;8.23;;
3095;SDS011;1558;42.700;23.360;2022-07-09T10:12:24;7.53;;;6.57;;
3095;SDS011;1558;42.700;23.360;2022-07-09T10:14:54;6.68;;;6.07;;
3095;SDS011;1558;42.700;23.360;2022-07-09T10:17:22;7.15;;;6.60;;
3095;SDS011;1558;42.700;23.360;2022-07-09T10:19:53;6.82;;;6.32;;
3095;SDS011;1558;42.700;23.360;2022-07-09T10:22:22;6.80;;;6.22;;
3095;SDS011;1558;42.700;23.360;2022-07-09T10:25:03;6.05;;;5.60;;
3095;SDS011;1558;42.700;23.360;2022-07-09T10:27:40;5.97;;;5.57;;
3095;SDS011;1558;42.700;23.360;2022-07-09T10:30:09;6.10;;;5.70;;
3095;SDS011;1558;42.700;23.360;2022-07-09T10:33:04;6.40;;;5.90;;
3095;SDS011;1558;42.700;23.360;2022-07-09T10:35:41;5.72;;;5.30;;
3095;SDS011;1558;42.700;23.360;2022-07-09T10:38:10;5.95;;;5.30;;
3095;SDS011;1558;42.700;23.360;2022-07-09T10:40:39;6.50;;;5.90;;
3095;SDS011;1558;42.700;23.360;2022-07-09T10:43:08;5.00;;;4.70;;
3095;SDS011;1558;42.700;23.360;2022-07-09T10:45:37;6.30;;;5.70;;
3095;SDS011;1558;42.700;23.360;2022-07-09T10:48:07;5.18;;;4.10;;
3095;SDS011;1558;42.700;23.360;2022-07-09T10:50:38;3.78;;;3.03;;
3095;SDS011;1558;42.700;23.360;2022-07-09T10:53:09;3.85;;;3.15;;
3095;SDS011;1558;42.700;23.360;2022-07-09T10:55:40;2.65;;;2.45;;
3095;SDS011;1558;42.700;23.360;2022-07-09T10:58:15;4.55;;;4.15;;
3095;SDS011;1558;42.700;23.360;2022-07-09T11:00:43;4.57;;;4.18;;
3095;SDS011;1558;42.700;23.360;2022-07-09T11:03:11;4.63;;;4.00;;
3095;SDS011;1558;42.700;23.360;2022-07-09T11:05:45;4.97;;;4.43;;
3095;SDS011;1558;42.700;23.360;2022-07-09T11:08:13;4.38;;;3.90;;
3095;SDS011;1558;42.700;23.360;2022-07-09T11:10:41;5.60;;;4.43;;
3095;SDS011;1558;42.700;23.360;2022-07-09T11:13:16;10.57;;;3.83;;
3095;SDS011;1558;42.700;23.360;2022-07-09T11:15:44;4.00;;;3.60;;
3095;SDS011;1558;42.700;23.360;2022-07-09T11:18:12;3.90;;;3.60;;
3095;SDS011;1558;42.700;23.360;2022-07-09T11:20:41;4.30;;;3.77;;
3095;SDS011;1558;42.700;23.360;2022-07-09T11:23:13;3.83;;;3.50;;
3095;SDS011;1558;42.700;23.360;2022-07-09T11:25:42;4.10;;;3.80;;
3095;SDS011;1558;42.700;23.360;2022-07-09T11:28:17;3.77;;;3.50;;
3095;SDS011;1558;42.700;23.360;2022-07-09T11:30:56;4.63;;;3.70;;
3095;SDS011;1558;42.700;23.360;2022-07-09T11:33:26;4.10;;;3.80;;
3095;SDS011;1558;42.700;23.360;2022-07-09T11:36:15;3.53;;;3.33;;
3095;SDS011;1558;42.700;23.360;2022-07-09T11:38:47;4.77;;;3.40;;
3095;SDS011;1558;42.700;23.360;2022-07-09T11:41:16;3.40;;;3.20;;
3095;SDS011;1558;42.700;23.360;2022-07-09T11:43:47;3.47;;;3.10;;
3095;SDS011;1558;42.700;23.360;2022-07-09T11:46:16;3.47;;;3.17;;
3095;SDS011;1558;42.700;23.360;2022-07-09T11:48:49;3.60;;;3.30;;
3095;SDS011;1558;42.700;23.360;2022-07-09T11:51:27;3.23;;;3.00;;
3095;SDS011;1558;42.700;23.360;2022-07-09T11:53:57;3.90;;;3.47;;
3095;SDS011;1558;42.700;23.360;2022-07-09T11:56:25;3.53;;;3.23;;
3095;SDS011;1558;42.700;23.360;2022-07-09T11:58:53;3.60;;;3.30;;
3095;SDS011;1558;42.700;23.360;2022-07-09T12:01:22;3.13;;;2.93;;
3095;SDS011;1558;42.700;23.360;2022-07-09T12:03:51;3.90;;;3.70;;
3095;SDS011;1558;42.700;23.360;2022-07-09T12:06:20;2.80;;;2.60;;
3095;SDS011;1558;42.700;23.360;2022-07-09T12:08:50;3.40;;;3.10;;
3095;SDS011;1558;42.700;23.360;2022-07-09T12:11:27;3.30;;;3.00;;
3095;SDS011;1558;42.700;23.360;2022-07-09T12:13:57;3.43;;;3.10;;
3095;SDS011;1558;42.700;23.360;2022-07-09T12:16:25;3.10;;;2.80;;
3095;SDS011;1558;42.700;23.360;2022-07-09T12:18:53;2.78;;;2.58;;
3095;SDS011;1558;42.700;23.360;2022-07-09T12:21:23;3.42;;;2.90;;
3095;SDS011;1558;42.700;23.360;2022-07-09T12:23:51;3.33;;;3.03;;
3095;SDS011;1558;42.700;23.360;2022-07-09T12:26:20;3.50;;;3.00;;
3095;SDS011;1558;42.700;23.360;2022-07-09T12:28:48;3.78;;;3.30;;
3095;SDS011;1558;42.700;23.360;2022-07-09T12:31:22;4.45;;;3.20;;
3095;SDS011;1558;42.700;23.360;2022-07-09T12:33:50;3.08;;;2.78;;
3095;SDS011;1558;42.700;23.360;2022-07-09T12:36:18;4.28;;;2.83;;
3095;SDS011;1558;42.700;23.360;2022-07-09T12:39:06;3.60;;;3.30;;
3095;SDS011;1558;42.700;23.360;2022-07-09T12:41:35;5.22;;;2.78;;
3095;SDS011;1558;42.700;23.360;2022-07-09T12:44:03;3.03;;;2.72;;
3095;SDS011;1558;42.700;23.360;2022-07-09T12:46:31;5.78;;;2.90;;
3095;SDS011;1558;42.700;23.360;2022-07-09T12:48:59;3.30;;;3.10;;
3095;SDS011;1558;42.700;23.360;2022-07-09T12:51:27;3.28;;;2.90;;
3095;SDS011;1558;42.700;23.360;2022-07-09T12:53:55;3.87;;;3.57;;
3095;SDS011;1558;42.700;23.360;2022-07-09T12:56:24;3.50;;;3.20;;
3095;SDS011;1558;42.700;23.360;2022-07-09T12:59:13;3.40;;;3.20;;
3095;SDS011;1558;42.700;23.360;2022-07-09T13:01:41;3.30;;;3.10;;
3095;SDS011;1558;42.700;23.360;2022-07-09T13:04:09;3.67;;;3.00;;
3095;SDS011;1558;42.700;23.360;2022-07-09T13:06:38;3.40;;;3.10;;
3095;SDS011;1558;42.700;23.360;2022-07-09T13:09:07;3.30;;;3.10;;
3095;SDS011;1558;42.700;23.360;2022-07-09T13:11:36;3.93;;;3.60;;
3095;SDS011;1558;42.700;23.360;2022-07-09T13:14:05;3.40;;;3.20;;
3095;SDS011;1558;42.700;23.360;2022-07-09T13:16:35;3.93;;;3.50;;
3095;SDS011;1558;42.700;23.360;2022-07-09T13:19:03;4.67;;;3.40;;
3095;SDS011;1558;42.700;23.360;2022-07-09T13:21:32;3.27;;;2.97;;
3095;SDS011;1558;42.700;23.360;2022-07-09T13:24:00;3.40;;;3.10;;
3095;SDS011;1558;42.700;23.360;2022-07-09T13:26:29;3.53;;;3.23;;
3095;SDS011;1558;42.700;23.360;2022-07-09T13:29:02;3.50;;;3.20;;
3095;SDS011;1558;42.700;23.360;2022-07-09T13:31:30;3.53;;;3.23;;
3095;SDS011;1558;42.700;23.360;2022-07-09T13:33:59;3.83;;;3.53;;
3095;SDS011;1558;42.700;23.360;2022-07-09T13:36:27;3.50;;;3.30;;
3095;SDS011;1558;42.700;23.360;2022-07-09T13:38:56;4.63;;;3.50;;
3095;SDS011;1558;42.700;23.360;2022-07-09T13:41:24;3.43;;;3.23;;
3095;SDS011;1558;42.700;23.360;2022-07-09T13:43:52;3.40;;;3.20;;
3095;SDS011;1558;42.700;23.360;2022-07-09T13:46:19;3.77;;;3.40;;
3095;SDS011;1558;42.700;23.360;2022-07-09T13:48:48;3.83;;;3.40;;
3095;SDS011;1558;42.700;23.360;2022-07-09T13:51:17;4.40;;;3.65;;
3095;SDS011;1558;42.700;23.360;2022-07-09T13:53:46;3.58;;;3.28;;
3095;SDS011;1558;42.700;23.360;2022-07-09T13:56:14;4.10;;;3.70;;
3095;SDS011;1558;42.700;23.360;2022-07-09T13:58:46;3.63;;;3.33;;
3095;SDS011;1558;42.700;23.360;2022-07-09T14:01:14;3.45;;;3.17;;
3095;SDS011;1558;42.700;23.360;2022-07-09T14:03:42;3.40;;;3.10;;
3095;SDS011;1558;42.700;23.360;2022-07-09T14:06:10;3.10;;;2.80;;
3095;SDS011;1558;42.700;23.360;2022-07-09T14:08:59;4.40;;;3.33;;
3095;SDS011;1558;42.700;23.360;2022-07-09T14:11:27;3.58;;;3.28;;
3095;SDS011;1558;42.700;23.360;2022-07-09T14:13:55;5.00;;;3.75;;
3095;SDS011;1558;42.700;23.360;2022-07-09T14:16:24;3.50;;;3.20;;
3095;SDS011;1558;42.700;23.360;2022-07-09T14:18:52;3.22;;;3.03;;
3095;SDS011;1558;42.700;23.360;2022-07-09T14:21:20;3.60;;;3.30;;
3095;SDS011;1558;42.700;23.360;2022-07-09T14:23:48;9.18;;;4.22;;
3095;SDS011;1558;42.700;23.360;2022-07-09T14:26:18;3.70;;;3.40;;
3095;SDS011;1558;42.700;23.360;2022-07-09T14:28:46;4.90;;;4.40;;
3095;SDS011;1558;42.700;23.360;2022-07-09T14:31:14;5.57;;;4.00;;
3095;SDS011;1558;42.700;23.360;2022-07-09T14:33:42;3.67;;;3.38;;
3095;SDS011;1558;42.700;23.360;2022-07-09T14:36:09;3.80;;;3.50;;
3095;SDS011;1558;42.700;23.360;2022-07-09T14:38:37;3.78;;;3.47;;
3095;SDS011;1558;42.700;23.360;2022-07-09T14:41:06;3.85;;;3.55;;
3095;SDS011;1558;42.700;23.360;2022-07-09T14:43:36;4.35;;;3.53;;
3095;SDS011;1558;42.700;23.360;2022-07-09T14:46:06;4.00;;;3.70;;
3095;SDS011;1558;42.700;23.360;2022-07-09T14:48:34;6.00;;;5.50;;
3095;SDS011;1558;42.700;23.360;2022-07-09T14:51:03;3.30;;;3.10;;
3095;SDS011;1558;42.700;23.360;2022-07-09T14:53:32;3.72;;;3.53;;
3095;SDS011;1558;42.700;23.360;2022-07-09T14:56:07;3.53;;;3.33;;
3095;SDS011;1558;42.700;23.360;2022-07-09T14:58:36;3.95;;;2.90;;
3095;SDS011;1558;42.700;23.360;2022-07-09T15:01:05;4.07;;;3.60;;
3095;SDS011;1558;42.700;23.360;2022-07-09T15:03:33;4.40;;;4.00;;
3095;SDS011;1558;42.700;23.360;2022-07-09T15:06:01;4.38;;;3.97;;
3095;SDS011;1558;42.700;23.360;2022-07-09T15:08:29;4.25;;;3.60;;
3095;SDS011;1558;42.700;23.360;2022-07-09T15:10:57;3.77;;;3.57;;
3095;SDS011;1558;42.700;23.360;2022-07-09T15:13:26;4.70;;;3.90;;